sensor_id;sensor_type;location;lat;lon;timestamp;temperature;humidity
32865;DHT22;19219;44.500;11.188;2023-04-25T00:00:53;15.40;99.90
32865;DHT22;19219;44.500;11.188;2023-04-25T00:03:18;15.40;99.90
32865;DHT22;19219;44.500;11.188;2023-04-25T00:05:44;15.30;99.90
32865;DHT22;19219;44.500;11.188;2023-04-25T00:08:11;15.20;99.90
32865;DHT22;19219;44.500;11.188;2023-04-25T00:10:36;15.10;99.90
32865;DHT22;19219;44.500;11.188;2023-04-25T00:13:02;15.00;99.90
32865;DHT22;19219;44.500;11.188;2023-04-25T00:15:28;15.00;99.90
32865;DHT22;19219;44.500;11.188;2023-04-25T00:17:56;14.90;99.90
32865;DHT22;19219;44.500;11.188;2023-04-25T00:20:22;14.90;99.90
32865;DHT22;19219;44.500;11.188;2023-04-25T00:22:49;15.00;99.90
32865;DHT22;19219;44.500;11.188;2023-04-25T00:25:14;15.00;99.90
32865;DHT22;19219;44.500;11.188;2023-04-25T00:27:40;15.00;99.90
32865;DHT22;19219;44.500;11.188;2023-04-25T00:30:07;15.10;99.90
32865;DHT22;19219;44.500;11.188;2023-04-25T00:32:33;15.10;99.90
32865;DHT22;19219;44.500;11.188;2023-04-25T00:34:59;15.00;99.90
32865;DHT22;19219;44.500;11.188;2023-04-25T00:37:25;15.00;99.90
32865;DHT22;19219;44.500;11.188;2023-04-25T00:39:51;14.70;99.90
32865;DHT22;19219;44.500;11.188;2023-04-25T00:42:19;14.50;99.90
32865;DHT22;19219;44.500;11.188;2023-04-25T00:44:45;14.40;99.90
32865;DHT22;19219;44.500;11.188;2023-04-25T00:47:11;14.30;99.90
32865;DHT22;19219;44.500;11.188;2023-04-25T00:49:36;14.30;99.90
32865;DHT22;19219;44.500;11.188;2023-04-25T00:52:02;14.30;99.90
32865;DHT22;19219;44.500;11.188;2023-04-25T00:54:28;14.30;99.90
32865;DHT22;19219;44.500;11.188;2023-04-25T00:56:55;14.40;99.90
32865;DHT22;19219;44.500;11.188;2023-04-25T00:59:21;14.30;99.90
32865;DHT22;19219;44.500;11.188;2023-04-25T01:01:47;14.30;99.90
32865;DHT22;19219;44.500;11.188;2023-04-25T01:04:13;14.30;99.90
32865;DHT22;19219;44.500;11.188;2023-04-25T01:06:39;14.00;99.90
32865;DHT22;19219;44.500;11.188;2023-04-25T01:09:05;13.80;99.90
32865;DHT22;19219;44.500;11.188;2023-04-25T01:11:31;13.70;99.90
32865;DHT22;19219;44.500;11.188;2023-04-25T01:13:56;13.70;99.90
32865;DHT22;19219;44.500;11.188;2023-04-25T01:16:22;13.70;99.90
32865;DHT22;19219;44.500;11.188;2023-04-25T01:18:50;13.60;99.90
32865;DHT22;19219;44.500;11.188;2023-04-25T01:21:16;13.50;99.90
32865;DHT22;19219;44.500;11.188;2023-04-25T01:23:42;13.40;99.90
32865;DHT22;19219;44.500;11.188;2023-04-25T01:26:09;13.30;99.90
32865;DHT22;19219;44.500;11.188;2023-04-25T01:28:36;13.20;99.90
32865;DHT22;19219;44.500;11.188;2023-04-25T01:31:02;13.10;99.90
32865;DHT22;19219;44.500;11.188;2023-04-25T01:33:30;12.90;99.90
32865;DHT22;19219;44.500;11.188;2023-04-25T01:35:55;12.80;99.90
32865;DHT22;19219;44.500;11.188;2023-04-25T01:38:21;12.70;99.90
32865;DHT22;19219;44.500;11.188;2023-04-25T01:40:49;12.60;99.90
32865;DHT22;19219;44.500;11.188;2023-04-25T01:43:16;12.60;99.90
32865;DHT22;19219;44.500;11.188;2023-04-25T01:45:42;12.60;99.90
32865;DHT22;19219;44.500;11.188;2023-04-25T01:48:09;12.60;99.90
32865;DHT22;19219;44.500;11.188;2023-04-25T01:50:35;12.60;99.90
32865;DHT22;19219;44.500;11.188;2023-04-25T01:53:01;12.50;99.90
32865;DHT22;19219;44.500;11.188;2023-04-25T01:55:27;12.40;99.90
32865;DHT22;19219;44.500;11.188;2023-04-25T01:57:53;12.30;99.90
32865;DHT22;19219;44.500;11.188;2023-04-25T02:00:19;12.20;99.90
32865;DHT22;19219;44.500;11.188;2023-04-25T02:02:45;12.10;99.90
32865;DHT22;19219;44.500;11.188;2023-04-25T02:05:11;12.00;99.90
32865;DHT22;19219;44.500;11.188;2023-04-25T02:07:36;12.00;99.90
32865;DHT22;19219;44.500;11.188;2023-04-25T02:10:03;11.90;99.90
32865;DHT22;19219;44.500;11.188;2023-04-25T02:12:31;11.80;99.90
32865;DHT22;19219;44.500;11.188;2023-04-25T02:14:57;11.70;99.90
32865;DHT22;19219;44.500;11.188;2023-04-25T02:17:23;11.60;99.90
32865;DHT22;19219;44.500;11.188;2023-04-25T02:19:48;11.40;99.90
32865;DHT22;19219;44.500;11.188;2023-04-25T02:22:15;11.40;99.90
32865;DHT22;19219;44.500;11.188;2023-04-25T02:24:41;11.30;99.90
32865;DHT22;19219;44.500;11.188;2023-04-25T02:27:06;11.20;99.90
32865;DHT22;19219;44.500;11.188;2023-04-25T02:29:33;11.30;99.90
32865;DHT22;19219;44.500;11.188;2023-04-25T02:31:58;11.30;99.90
32865;DHT22;19219;44.500;11.188;2023-04-25T02:34:24;11.20;99.90
32865;DHT22;19219;44.500;11.188;2023-04-25T02:36:50;11.20;99.90
32865;DHT22;19219;44.500;11.188;2023-04-25T02:39:18;11.30;99.90
32865;DHT22;19219;44.500;11.188;2023-04-25T02:41:44;11.20;99.90
32865;DHT22;19219;44.500;11.188;2023-04-25T02:44:09;11.10;99.90
32865;DHT22;19219;44.500;11.188;2023-04-25T02:46:35;11.10;99.90
32865;DHT22;19219;44.500;11.188;2023-04-25T02:49:01;11.10;99.90
32865;DHT22;19219;44.500;11.188;2023-04-25T02:51:26;11.00;99.90
32865;DHT22;19219;44.500;11.188;2023-04-25T02:53:52;11.10;99.90
32865;DHT22;19219;44.500;11.188;2023-04-25T02:56:18;11.00;99.90
32865;DHT22;19219;44.500;11.188;2023-04-25T02:58:43;10.80;99.90
32865;DHT22;19219;44.500;11.188;2023-04-25T03:01:09;10.70;99.90
32865;DHT22;19219;44.500;11.188;2023-04-25T03:03:35;10.60;99.90
32865;DHT22;19219;44.500;11.188;2023-04-25T03:06:01;10.60;99.90
32865;DHT22;19219;44.500;11.188;2023-04-25T03:08:26;10.60;99.90
32865;DHT22;19219;44.500;11.188;2023-04-25T03:10:57;10.70;99.90
32865;DHT22;19219;44.500;11.188;2023-04-25T03:13:24;10.80;99.90
32865;DHT22;19219;44.500;11.188;2023-04-25T03:15:49;10.80;99.90
32865;DHT22;19219;44.500;11.188;2023-04-25T03:18:15;10.80;99.90
32865;DHT22;19219;44.500;11.188;2023-04-25T03:20:41;10.90;99.90
32865;DHT22;19219;44.500;11.188;2023-04-25T03:23:07;10.90;99.90
32865;DHT22;19219;44.500;11.188;2023-04-25T03:25:33;10.90;99.90
32865;DHT22;19219;44.500;11.188;2023-04-25T03:27:58;10.90;99.90
32865;DHT22;19219;44.500;11.188;2023-04-25T03:30:24;10.90;99.90
32865;DHT22;19219;44.500;11.188;2023-04-25T03:32:50;11.10;99.90
32865;DHT22;19219;44.500;11.188;2023-04-25T03:35:15;11.20;99.90
32865;DHT22;19219;44.500;11.188;2023-04-25T03:37:41;11.40;99.90
32865;DHT22;19219;44.500;11.188;2023-04-25T03:40:11;11.50;99.90
32865;DHT22;19219;44.500;11.188;2023-04-25T03:42:36;11.50;99.90
32865;DHT22;19219;44.500;11.188;2023-04-25T03:45:02;11.60;99.90
32865;DHT22;19219;44.500;11.188;2023-04-25T03:47:28;11.60;99.90
32865;DHT22;19219;44.500;11.188;2023-04-25T03:49:53;11.70;99.90
32865;DHT22;19219;44.500;11.188;2023-04-25T03:52:19;11.70;99.90
32865;DHT22;19219;44.500;11.188;2023-04-25T03:54:45;11.60;99.90
32865;DHT22;19219;44.500;11.188;2023-04-25T03:57:10;11.60;99.90
32865;DHT22;19219;44.500;11.188;2023-04-25T03:59:36;11.60;99.90
32865;DHT22;19219;44.500;11.188;2023-04-25T04:02:02;11.60;99.90
32865;DHT22;19219;44.500;11.188;2023-04-25T04:04:27;11.70;99.90
32865;DHT22;19219;44.500;11.188;2023-04-25T04:06:53;11.60;99.90
32865;DHT22;19219;44.500;11.188;2023-04-25T04:09:19;11.50;99.90
32865;DHT22;19219;44.500;11.188;2023-04-25T04:11:45;11.40;99.90
32865;DHT22;19219;44.500;11.188;2023-04-25T04:14:11;11.10;99.90
32865;DHT22;19219;44.500;11.188;2023-04-25T04:16:37;10.90;99.90
32865;DHT22;19219;44.500;11.188;2023-04-25T04:19:03;10.80;99.90
32865;DHT22;19219;44.500;11.188;2023-04-25T04:21:28;10.70;99.90
32865;DHT22;19219;44.500;11.188;2023-04-25T04:23:54;10.60;99.90
32865;DHT22;19219;44.500;11.188;2023-04-25T04:26:21;10.50;99.90
32865;DHT22;19219;44.500;11.188;2023-04-25T04:28:52;10.30;99.90
32865;DHT22;19219;44.500;11.188;2023-04-25T04:31:20;10.30;99.90
32865;DHT22;19219;44.500;11.188;2023-04-25T04:33:47;10.30;99.90
32865;DHT22;19219;44.500;11.188;2023-04-25T04:36:12;10.20;99.90
32865;DHT22;19219;44.500;11.188;2023-04-25T04:38:38;10.20;99.90
32865;DHT22;19219;44.500;11.188;2023-04-25T04:41:05;10.30;99.90
32865;DHT22;19219;44.500;11.188;2023-04-25T04:43:31;10.20;99.90
32865;DHT22;19219;44.500;11.188;2023-04-25T04:46:00;10.20;99.90
32865;DHT22;19219;44.500;11.188;2023-04-25T04:48:26;10.10;99.90
32865;DHT22;19219;44.500;11.188;2023-04-25T04:50:52;10.00;99.90
32865;DHT22;19219;44.500;11.188;2023-04-25T04:53:18;10.00;99.90
32865;DHT22;19219;44.500;11.188;2023-04-25T04:55:43;10.00;99.90
32865;DHT22;19219;44.500;11.188;2023-04-25T04:58:09;10.20;99.90
32865;DHT22;19219;44.500;11.188;2023-04-25T05:00:35;10.30;99.90
32865;DHT22;19219;44.500;11.188;2023-04-25T05:03:01;10.40;99.90
32865;DHT22;19219;44.500;11.188;2023-04-25T05:05:26;10.40;99.90
32865;DHT22;19219;44.500;11.188;2023-04-25T05:07:52;10.60;99.90
32865;DHT22;19219;44.500;11.188;2023-04-25T05:10:19;10.70;99.90
32865;DHT22;19219;44.500;11.188;2023-04-25T05:12:44;10.90;99.90
32865;DHT22;19219;44.500;11.188;2023-04-25T05:15:10;11.00;99.90
32865;DHT22;19219;44.500;11.188;2023-04-25T05:17:36;11.20;99.90
32865;DHT22;19219;44.500;11.188;2023-04-25T05:20:02;11.20;99.90
32865;DHT22;19219;44.500;11.188;2023-04-25T05:22:31;11.20;99.90
32865;DHT22;19219;44.500;11.188;2023-04-25T05:24:56;11.20;99.90
32865;DHT22;19219;44.500;11.188;2023-04-25T05:27:22;11.20;99.90
32865;DHT22;19219;44.500;11.188;2023-04-25T05:29:48;11.20;99.90
32865;DHT22;19219;44.500;11.188;2023-04-25T05:32:13;11.40;99.90
32865;DHT22;19219;44.500;11.188;2023-04-25T05:34:39;11.50;99.90
32865;DHT22;19219;44.500;11.188;2023-04-25T05:37:05;11.70;99.90
32865;DHT22;19219;44.500;11.188;2023-04-25T05:39:31;11.80;99.90
32865;DHT22;19219;44.500;11.188;2023-04-25T05:41:56;11.80;99.90
32865;DHT22;19219;44.500;11.188;2023-04-25T05:44:22;11.80;99.90
32865;DHT22;19219;44.500;11.188;2023-04-25T05:46:47;11.90;99.90
32865;DHT22;19219;44.500;11.188;2023-04-25T05:49:13;12.00;99.90
32865;DHT22;19219;44.500;11.188;2023-04-25T05:51:39;12.10;99.90
32865;DHT22;19219;44.500;11.188;2023-04-25T05:54:04;12.20;99.90
32865;DHT22;19219;44.500;11.188;2023-04-25T05:56:30;12.30;99.90
32865;DHT22;19219;44.500;11.188;2023-04-25T05:58:56;12.40;99.90
32865;DHT22;19219;44.500;11.188;2023-04-25T06:01:22;12.60;99.90
32865;DHT22;19219;44.500;11.188;2023-04-25T06:03:48;12.70;99.90
32865;DHT22;19219;44.500;11.188;2023-04-25T06:06:14;12.90;99.90
32865;DHT22;19219;44.500;11.188;2023-04-25T06:08:40;13.00;99.90
32865;DHT22;19219;44.500;11.188;2023-04-25T06:11:06;13.10;99.90
32865;DHT22;19219;44.500;11.188;2023-04-25T06:13:32;13.10;99.90
32865;DHT22;19219;44.500;11.188;2023-04-25T06:15:57;13.00;99.90
32865;DHT22;19219;44.500;11.188;2023-04-25T06:18:23;13.00;99.90
32865;DHT22;19219;44.500;11.188;2023-04-25T06:20:48;13.00;99.90
32865;DHT22;19219;44.500;11.188;2023-04-25T06:23:14;13.00;99.90
32865;DHT22;19219;44.500;11.188;2023-04-25T06:25:40;13.00;99.90
32865;DHT22;19219;44.500;11.188;2023-04-25T06:28:05;13.10;99.90
32865;DHT22;19219;44.500;11.188;2023-04-25T06:30:31;13.10;99.90
32865;DHT22;19219;44.500;11.188;2023-04-25T06:32:57;13.10;99.90
32865;DHT22;19219;44.500;11.188;2023-04-25T06:35:22;13.20;99.90
32865;DHT22;19219;44.500;11.188;2023-04-25T06:37:48;13.30;99.90
32865;DHT22;19219;44.500;11.188;2023-04-25T06:40:14;13.40;99.90
32865;DHT22;19219;44.500;11.188;2023-04-25T06:42:40;13.50;99.90
32865;DHT22;19219;44.500;11.188;2023-04-25T06:45:06;13.50;99.90
32865;DHT22;19219;44.500;11.188;2023-04-25T06:47:32;13.50;99.90
32865;DHT22;19219;44.500;11.188;2023-04-25T06:49:57;13.50;99.90
32865;DHT22;19219;44.500;11.188;2023-04-25T06:52:23;13.50;99.90
32865;DHT22;19219;44.500;11.188;2023-04-25T06:54:48;13.60;99.90
32865;DHT22;19219;44.500;11.188;2023-04-25T06:57:14;13.70;99.90
32865;DHT22;19219;44.500;11.188;2023-04-25T06:59:40;13.70;99.90
32865;DHT22;19219;44.500;11.188;2023-04-25T07:02:06;13.80;99.90
32865;DHT22;19219;44.500;11.188;2023-04-25T07:04:31;14.00;99.90
32865;DHT22;19219;44.500;11.188;2023-04-25T07:06:57;14.20;99.90
32865;DHT22;19219;44.500;11.188;2023-04-25T07:09:23;14.10;99.90
32865;DHT22;19219;44.500;11.188;2023-04-25T07:11:50;14.00;99.90
32865;DHT22;19219;44.500;11.188;2023-04-25T07:14:16;13.90;99.90
32865;DHT22;19219;44.500;11.188;2023-04-25T07:16:42;13.80;99.90
32865;DHT22;19219;44.500;11.188;2023-04-25T07:19:07;13.70;99.90
32865;DHT22;19219;44.500;11.188;2023-04-25T07:21:33;14.00;99.90
32865;DHT22;19219;44.500;11.188;2023-04-25T07:23:59;14.30;99.90
32865;DHT22;19219;44.500;11.188;2023-04-25T07:26:25;14.60;99.90
32865;DHT22;19219;44.500;11.188;2023-04-25T07:28:51;14.70;99.90
32865;DHT22;19219;44.500;11.188;2023-04-25T07:31:17;14.70;99.90
32865;DHT22;19219;44.500;11.188;2023-04-25T07:34:03;14.40;99.90
32865;DHT22;19219;44.500;11.188;2023-04-25T07:36:28;14.20;99.90
32865;DHT22;19219;44.500;11.188;2023-04-25T07:38:54;14.20;99.90
32865;DHT22;19219;44.500;11.188;2023-04-25T07:41:20;14.20;99.90
32865;DHT22;19219;44.500;11.188;2023-04-25T07:43:45;14.20;99.90
32865;DHT22;19219;44.500;11.188;2023-04-25T07:46:11;14.30;99.90
32865;DHT22;19219;44.500;11.188;2023-04-25T07:48:36;14.30;99.90
32865;DHT22;19219;44.500;11.188;2023-04-25T07:51:02;14.50;99.90
32865;DHT22;19219;44.500;11.188;2023-04-25T07:53:30;14.70;99.90
32865;DHT22;19219;44.500;11.188;2023-04-25T07:55:55;15.20;99.90
32865;DHT22;19219;44.500;11.188;2023-04-25T07:58:21;15.30;99.90
32865;DHT22;19219;44.500;11.188;2023-04-25T08:00:48;15.30;99.90
32865;DHT22;19219;44.500;11.188;2023-04-25T08:03:14;15.20;99.90
32865;DHT22;19219;44.500;11.188;2023-04-25T08:05:39;15.20;99.90
32865;DHT22;19219;44.500;11.188;2023-04-25T08:08:05;15.30;99.90
32865;DHT22;19219;44.500;11.188;2023-04-25T08:10:32;15.20;99.90
32865;DHT22;19219;44.500;11.188;2023-04-25T08:12:59;14.90;99.90
32865;DHT22;19219;44.500;11.188;2023-04-25T08:15:25;14.80;99.90
32865;DHT22;19219;44.500;11.188;2023-04-25T08:17:51;14.80;99.90
32865;DHT22;19219;44.500;11.188;2023-04-25T08:20:16;14.90;99.90
32865;DHT22;19219;44.500;11.188;2023-04-25T08:22:42;14.90;99.90
32865;DHT22;19219;44.500;11.188;2023-04-25T08:25:08;14.70;99.90
32865;DHT22;19219;44.500;11.188;2023-04-25T08:27:34;14.70;99.90
32865;DHT22;19219;44.500;11.188;2023-04-25T08:30:00;14.60;99.90
32865;DHT22;19219;44.500;11.188;2023-04-25T08:32:27;14.50;99.90
32865;DHT22;19219;44.500;11.188;2023-04-25T08:34:52;14.30;99.90
32865;DHT22;19219;44.500;11.188;2023-04-25T08:37:20;14.10;99.90
32865;DHT22;19219;44.500;11.188;2023-04-25T08:39:46;14.00;99.90
32865;DHT22;19219;44.500;11.188;2023-04-25T08:42:15;13.90;99.90
32865;DHT22;19219;44.500;11.188;2023-04-25T08:44:41;14.10;99.90
32865;DHT22;19219;44.500;11.188;2023-04-25T08:47:06;14.00;99.90
32865;DHT22;19219;44.500;11.188;2023-04-25T08:49:33;14.10;99.90
32865;DHT22;19219;44.500;11.188;2023-04-25T08:52:04;13.90;99.90
32865;DHT22;19219;44.500;11.188;2023-04-25T08:54:32;13.80;99.90
32865;DHT22;19219;44.500;11.188;2023-04-25T08:57:01;13.80;99.90
32865;DHT22;19219;44.500;11.188;2023-04-25T08:59:30;13.90;99.90
32865;DHT22;19219;44.500;11.188;2023-04-25T09:01:57;13.80;99.90
32865;DHT22;19219;44.500;11.188;2023-04-25T09:04:22;13.80;99.90
32865;DHT22;19219;44.500;11.188;2023-04-25T09:06:48;13.90;99.90
32865;DHT22;19219;44.500;11.188;2023-04-25T09:09:14;14.00;99.90
32865;DHT22;19219;44.500;11.188;2023-04-25T09:11:40;13.90;99.90
32865;DHT22;19219;44.500;11.188;2023-04-25T09:14:14;13.90;99.90
32865;DHT22;19219;44.500;11.188;2023-04-25T09:19:25;13.90;99.90
32865;DHT22;19219;44.500;11.188;2023-04-25T09:21:54;13.70;99.90
32865;DHT22;19219;44.500;11.188;2023-04-25T09:24:43;13.80;99.90
32865;DHT22;19219;44.500;11.188;2023-04-25T09:27:11;13.70;99.90
32865;DHT22;19219;44.500;11.188;2023-04-25T09:29:39;13.70;99.90
32865;DHT22;19219;44.500;11.188;2023-04-25T09:32:18;13.90;99.90
32865;DHT22;19219;44.500;11.188;2023-04-25T09:34:55;14.00;99.90
32865;DHT22;19219;44.500;11.188;2023-04-25T09:37:23;14.20;99.90
32865;DHT22;19219;44.500;11.188;2023-04-25T09:39:50;14.30;99.90
32865;DHT22;19219;44.500;11.188;2023-04-25T09:42:17;14.40;99.90
32865;DHT22;19219;44.500;11.188;2023-04-25T09:44:46;14.50;99.90
32865;DHT22;19219;44.500;11.188;2023-04-25T09:47:13;14.50;99.90
32865;DHT22;19219;44.500;11.188;2023-04-25T09:49:41;14.50;99.90
32865;DHT22;19219;44.500;11.188;2023-04-25T09:52:09;14.60;99.90
32865;DHT22;19219;44.500;11.188;2023-04-25T09:54:34;14.70;99.90
32865;DHT22;19219;44.500;11.188;2023-04-25T09:57:21;14.90;99.90
32865;DHT22;19219;44.500;11.188;2023-04-25T09:59:55;15.00;99.90
32865;DHT22;19219;44.500;11.188;2023-04-25T10:02:22;15.00;99.90
32865;DHT22;19219;44.500;11.188;2023-04-25T10:04:50;15.20;99.90
32865;DHT22;19219;44.500;11.188;2023-04-25T10:07:18;15.30;99.90
32865;DHT22;19219;44.500;11.188;2023-04-25T10:09:48;15.30;99.90
32865;DHT22;19219;44.500;11.188;2023-04-25T10:12:16;15.20;99.90
32865;DHT22;19219;44.500;11.188;2023-04-25T10:14:42;15.30;99.90
32865;DHT22;19219;44.500;11.188;2023-04-25T10:17:09;15.40;99.90
32865;DHT22;19219;44.500;11.188;2023-04-25T10:19:35;15.40;99.90
32865;DHT22;19219;44.500;11.188;2023-04-25T10:22:08;15.40;99.90
32865;DHT22;19219;44.500;11.188;2023-04-25T10:24:38;15.80;99.90
32865;DHT22;19219;44.500;11.188;2023-04-25T10:27:05;15.80;99.90
32865;DHT22;19219;44.500;11.188;2023-04-25T10:29:31;15.70;99.90
32865;DHT22;19219;44.500;11.188;2023-04-25T10:31:57;15.80;99.90
32865;DHT22;19219;44.500;11.188;2023-04-25T10:34:43;15.90;99.90
32865;DHT22;19219;44.500;11.188;2023-04-25T10:37:12;16.20;99.90
32865;DHT22;19219;44.500;11.188;2023-04-25T10:39:40;16.20;99.90
32865;DHT22;19219;44.500;11.188;2023-04-25T10:42:07;16.40;99.90
32865;DHT22;19219;44.500;11.188;2023-04-25T10:44:37;16.40;99.90
32865;DHT22;19219;44.500;11.188;2023-04-25T10:47:06;16.70;99.90
32865;DHT22;19219;44.500;11.188;2023-04-25T10:49:42;16.50;99.90
32865;DHT22;19219;44.500;11.188;2023-04-25T10:52:26;16.70;99.90
32865;DHT22;19219;44.500;11.188;2023-04-25T10:54:54;17.00;99.90
32865;DHT22;19219;44.500;11.188;2023-04-25T10:57:45;17.30;99.90
32865;DHT22;19219;44.500;11.188;2023-04-25T11:00:18;17.40;99.90
32865;DHT22;19219;44.500;11.188;2023-04-25T11:02:48;17.50;99.90
32865;DHT22;19219;44.500;11.188;2023-04-25T11:05:32;17.60;99.90
32865;DHT22;19219;44.500;11.188;2023-04-25T11:07:59;17.90;99.90
32865;DHT22;19219;44.500;11.188;2023-04-25T11:10:31;17.50;99.90
32865;DHT22;19219;44.500;11.188;2023-04-25T11:12:58;17.30;99.90
32865;DHT22;19219;44.500;11.188;2023-04-25T11:15:26;17.10;99.90
32865;DHT22;19219;44.500;11.188;2023-04-25T11:17:55;17.00;99.90
32865;DHT22;19219;44.500;11.188;2023-04-25T11:20:22;17.10;99.90
32865;DHT22;19219;44.500;11.188;2023-04-25T11:22:48;17.20;99.90
32865;DHT22;19219;44.500;11.188;2023-04-25T11:25:15;17.10;99.90
32865;DHT22;19219;44.500;11.188;2023-04-25T11:27:54;17.10;99.90
32865;DHT22;19219;44.500;11.188;2023-04-25T11:30:22;16.80;99.90
32865;DHT22;19219;44.500;11.188;2023-04-25T11:32:48;17.00;99.90
32865;DHT22;19219;44.500;11.188;2023-04-25T11:35:14;17.30;99.90
32865;DHT22;19219;44.500;11.188;2023-04-25T11:37:41;17.70;99.90
32865;DHT22;19219;44.500;11.188;2023-04-25T11:40:07;17.70;99.90
32865;DHT22;19219;44.500;11.188;2023-04-25T11:42:42;17.50;99.90
32865;DHT22;19219;44.500;11.188;2023-04-25T11:45:08;17.40;99.90
32865;DHT22;19219;44.500;11.188;2023-04-25T11:47:35;17.50;99.90
32865;DHT22;19219;44.500;11.188;2023-04-25T11:50:04;17.50;99.90
32865;DHT22;19219;44.500;11.188;2023-04-25T11:52:42;17.40;99.90
32865;DHT22;19219;44.500;11.188;2023-04-25T11:55:10;17.60;99.90
32865;DHT22;19219;44.500;11.188;2023-04-25T11:57:38;17.70;99.90
32865;DHT22;19219;44.500;11.188;2023-04-25T12:00:12;17.70;99.90
32865;DHT22;19219;44.500;11.188;2023-04-25T12:02:43;17.80;99.90
32865;DHT22;19219;44.500;11.188;2023-04-25T12:05:23;18.00;99.90
32865;DHT22;19219;44.500;11.188;2023-04-25T12:07:49;18.20;99.90
32865;DHT22;19219;44.500;11.188;2023-04-25T12:10:17;18.40;99.90
32865;DHT22;19219;44.500;11.188;2023-04-25T12:12:44;18.20;99.90
32865;DHT22;19219;44.500;11.188;2023-04-25T12:15:15;18.10;99.90
32865;DHT22;19219;44.500;11.188;2023-04-25T12:17:45;18.10;99.90
32865;DHT22;19219;44.500;11.188;2023-04-25T12:20:19;18.30;99.90
32865;DHT22;19219;44.500;11.188;2023-04-25T12:22:51;18.20;99.90
32865;DHT22;19219;44.500;11.188;2023-04-25T12:25:37;18.00;99.90
32865;DHT22;19219;44.500;11.188;2023-04-25T12:28:23;17.70;99.90
32865;DHT22;19219;44.500;11.188;2023-04-25T12:33:22;18.10;99.90
32865;DHT22;19219;44.500;11.188;2023-04-25T12:35:48;18.20;99.90
32865;DHT22;19219;44.500;11.188;2023-04-25T12:38:23;18.30;99.90
32865;DHT22;19219;44.500;11.188;2023-04-25T12:40:49;18.10;99.90
32865;DHT22;19219;44.500;11.188;2023-04-25T12:43:15;17.90;99.90
32865;DHT22;19219;44.500;11.188;2023-04-25T12:45:40;17.90;99.90
32865;DHT22;19219;44.500;11.188;2023-04-25T12:48:06;17.90;99.90
32865;DHT22;19219;44.500;11.188;2023-04-25T12:50:32;18.00;99.90
32865;DHT22;19219;44.500;11.188;2023-04-25T12:52:57;17.90;99.90
32865;DHT22;19219;44.500;11.188;2023-04-25T12:55:23;18.00;99.90
32865;DHT22;19219;44.500;11.188;2023-04-25T12:57:48;18.00;99.90
32865;DHT22;19219;44.500;11.188;2023-04-25T13:00:14;18.00;99.90
32865;DHT22;19219;44.500;11.188;2023-04-25T13:02:43;17.90;99.90
32865;DHT22;19219;44.500;11.188;2023-04-25T13:05:08;17.70;99.90
32865;DHT22;19219;44.500;11.188;2023-04-25T13:07:34;17.90;99.90
32865;DHT22;19219;44.500;11.188;2023-04-25T13:10:00;17.70;99.90
32865;DHT22;19219;44.500;11.188;2023-04-25T13:12:27;17.60;99.90
32865;DHT22;19219;44.500;11.188;2023-04-25T13:14:53;17.60;99.90
32865;DHT22;19219;44.500;11.188;2023-04-25T13:17:18;17.30;99.90
32865;DHT22;19219;44.500;11.188;2023-04-25T13:19:44;17.30;99.90
32865;DHT22;19219;44.500;11.188;2023-04-25T13:22:10;17.60;99.90
32865;DHT22;19219;44.500;11.188;2023-04-25T13:24:36;17.60;99.90
32865;DHT22;19219;44.500;11.188;2023-04-25T13:27:02;17.30;99.90
32865;DHT22;19219;44.500;11.188;2023-04-25T13:29:27;17.50;99.90
32865;DHT22;19219;44.500;11.188;2023-04-25T13:31:53;17.80;99.90
32865;DHT22;19219;44.500;11.188;2023-04-25T13:34:19;18.00;99.90
32865;DHT22;19219;44.500;11.188;2023-04-25T13:36:44;18.10;99.90
32865;DHT22;19219;44.500;11.188;2023-04-25T13:39:10;17.90;99.90
32865;DHT22;19219;44.500;11.188;2023-04-25T13:41:36;17.50;99.90
32865;DHT22;19219;44.500;11.188;2023-04-25T13:44:02;17.60;99.90
32865;DHT22;19219;44.500;11.188;2023-04-25T13:46:28;17.60;99.90
32865;DHT22;19219;44.500;11.188;2023-04-25T13:48:53;17.40;99.90
32865;DHT22;19219;44.500;11.188;2023-04-25T13:51:19;17.50;99.90
32865;DHT22;19219;44.500;11.188;2023-04-25T13:53:45;17.20;99.90
32865;DHT22;19219;44.500;11.188;2023-04-25T13:56:11;17.30;99.90
32865;DHT22;19219;44.500;11.188;2023-04-25T13:58:37;17.40;99.90
32865;DHT22;19219;44.500;11.188;2023-04-25T14:01:03;17.60;99.90
32865;DHT22;19219;44.500;11.188;2023-04-25T14:03:29;17.90;99.90
32865;DHT22;19219;44.500;11.188;2023-04-25T14:05:55;18.10;99.90
32865;DHT22;19219;44.500;11.188;2023-04-25T14:08:21;18.20;99.90
32865;DHT22;19219;44.500;11.188;2023-04-25T14:10:46;18.10;99.90
32865;DHT22;19219;44.500;11.188;2023-04-25T14:13:12;17.90;99.90
32865;DHT22;19219;44.500;11.188;2023-04-25T14:15:38;17.70;99.90
32865;DHT22;19219;44.500;11.188;2023-04-25T14:18:03;17.20;99.90
32865;DHT22;19219;44.500;11.188;2023-04-25T14:20:29;17.00;99.90
32865;DHT22;19219;44.500;11.188;2023-04-25T14:22:55;17.10;99.90
32865;DHT22;19219;44.500;11.188;2023-04-25T14:25:23;17.50;99.90
32865;DHT22;19219;44.500;11.188;2023-04-25T14:27:48;17.80;99.90
32865;DHT22;19219;44.500;11.188;2023-04-25T14:30:18;18.00;99.90
32865;DHT22;19219;44.500;11.188;2023-04-25T14:32:45;18.00;99.90
32865;DHT22;19219;44.500;11.188;2023-04-25T14:35:11;18.10;99.90
32865;DHT22;19219;44.500;11.188;2023-04-25T14:37:37;18.00;99.90
32865;DHT22;19219;44.500;11.188;2023-04-25T14:40:02;18.00;99.90
32865;DHT22;19219;44.500;11.188;2023-04-25T14:42:28;17.90;99.90
32865;DHT22;19219;44.500;11.188;2023-04-25T14:44:54;18.10;99.90
32865;DHT22;19219;44.500;11.188;2023-04-25T14:47:20;18.10;99.90
32865;DHT22;19219;44.500;11.188;2023-04-25T14:49:45;18.20;99.90
32865;DHT22;19219;44.500;11.188;2023-04-25T14:52:16;18.40;99.90
32865;DHT22;19219;44.500;11.188;2023-04-25T14:54:42;18.60;99.90
32865;DHT22;19219;44.500;11.188;2023-04-25T14:57:07;18.50;99.90
32865;DHT22;19219;44.500;11.188;2023-04-25T14:59:33;18.50;99.90
32865;DHT22;19219;44.500;11.188;2023-04-25T15:01:59;18.40;99.90
32865;DHT22;19219;44.500;11.188;2023-04-25T15:04:24;18.40;99.90
32865;DHT22;19219;44.500;11.188;2023-04-25T15:06:50;18.30;99.90
32865;DHT22;19219;44.500;11.188;2023-04-25T15:09:16;18.20;99.90
32865;DHT22;19219;44.500;11.188;2023-04-25T15:11:42;17.70;99.90
32865;DHT22;19219;44.500;11.188;2023-04-25T15:14:09;17.50;99.90
32865;DHT22;19219;44.500;11.188;2023-04-25T15:16:35;17.40;99.90
32865;DHT22;19219;44.500;11.188;2023-04-25T15:19:01;17.40;99.90